sensor_id;sensor_type;location;lat;lon;timestamp;pressure;altitude;pressure_sealevel;temperature;humidity
42451;BME280;28080;51.138;17.170;2022-07-06T00:00:23;100300.39;;;17.10;79.41
42451;BME280;28080;51.138;17.170;2022-07-06T00:05:47;100295.10;;;17.06;78.98
42451;BME280;28080;51.138;17.170;2022-07-06T00:11:05;100296.67;;;16.98;78.25
42451;BME280;28080;51.138;17.170;2022-07-06T00:16:30;100300.48;;;16.89;78.43
42451;BME280;28080;51.138;17.170;2022-07-06T00:21:53;100295.72;;;16.83;77.84
42451;BME280;28080;51.138;17.170;2022-07-06T00:27:18;100295.70;;;16.77;78.07
42451;BME280;28080;51.138;17.170;2022-07-06T00:32:41;100298.39;;;16.70;78.13
42451;BME280;28080;51.138;17.170;2022-07-06T00:38:05;100301.34;;;16.67;78.62
42451;BME280;28080;51.138;17.170;2022-07-06T00:43:47;100291.84;;;16.64;78.71
42451;BME280;28080;51.138;17.170;2022-07-06T00:49:05;100285.75;;;16.61;78.22
42451;BME280;28080;51.138;17.170;2022-07-06T00:54:42;100287.86;;;16.49;78.53
42451;BME280;28080;51.138;17.170;2022-07-06T01:00:12;100287.81;;;16.46;79.00
42451;BME280;28080;51.138;17.170;2022-07-06T01:05:38;100285.21;;;16.43;79.03
42451;BME280;28080;51.138;17.170;2022-07-06T01:11:02;100294.35;;;16.42;79.00
42451;BME280;28080;51.138;17.170;2022-07-06T01:16:27;100294.00;;;16.37;79.87
42451;BME280;28080;51.138;17.170;2022-07-06T01:21:52;100292.52;;;16.31;79.68
42451;BME280;28080;51.138;17.170;2022-07-06T01:27:09;100294.77;;;16.26;79.86
42451;BME280;28080;51.138;17.170;2022-07-06T01:32:34;100292.04;;;16.12;80.14
42451;BME280;28080;51.138;17.170;2022-07-06T01:37:59;100284.86;;;16.06;80.94
42451;BME280;28080;51.138;17.170;2022-07-06T01:43:24;100290.55;;;16.01;81.00
42451;BME280;28080;51.138;17.170;2022-07-06T01:48:48;100287.25;;;15.98;80.33
42451;BME280;28080;51.138;17.170;2022-07-06T01:54:13;100276.84;;;15.90;80.39
42451;BME280;28080;51.138;17.170;2022-07-06T01:59:37;100286.77;;;15.87;81.28
42451;BME280;28080;51.138;17.170;2022-07-06T02:05:02;100291.30;;;15.79;82.01
42451;BME280;28080;51.138;17.170;2022-07-06T02:10:27;100299.19;;;15.72;82.03
42451;BME280;28080;51.138;17.170;2022-07-06T02:15:51;100298.34;;;15.71;81.67
42451;BME280;28080;51.138;17.170;2022-07-06T02:21:16;100299.45;;;15.73;81.69
42451;BME280;28080;51.138;17.170;2022-07-06T02:26:39;100298.20;;;15.71;81.87
42451;BME280;28080;51.138;17.170;2022-07-06T02:32:05;100290.85;;;15.70;81.44
42451;BME280;28080;51.138;17.170;2022-07-06T02:37:29;100286.20;;;15.68;81.60
42451;BME280;28080;51.138;17.170;2022-07-06T02:42:54;100284.33;;;15.65;81.17
42451;BME280;28080;51.138;17.170;2022-07-06T02:48:18;100293.76;;;15.66;81.52
42451;BME280;28080;51.138;17.170;2022-07-06T02:53:37;100303.17;;;15.63;82.39
42451;BME280;28080;51.138;17.170;2022-07-06T02:59:02;100296.16;;;15.59;81.62
42451;BME280;28080;51.138;17.170;2022-07-06T03:04:27;100289.91;;;15.62;82.21
42451;BME280;28080;51.138;17.170;2022-07-06T03:09:51;100291.03;;;15.59;83.44
42451;BME280;28080;51.138;17.170;2022-07-06T03:15:16;100288.81;;;15.58;83.62
42451;BME280;28080;51.138;17.170;2022-07-06T03:20:41;100283.01;;;15.58;83.93
42451;BME280;28080;51.138;17.170;2022-07-06T03:26:05;100280.15;;;15.61;84.02
42451;BME280;28080;51.138;17.170;2022-07-06T03:31:30;100280.60;;;15.66;84.31
42451;BME280;28080;51.138;17.170;2022-07-06T03:36:54;100286.39;;;15.66;85.41
42451;BME280;28080;51.138;17.170;2022-07-06T03:42:19;100297.94;;;15.56;86.76
42451;BME280;28080;51.138;17.170;2022-07-06T03:47:43;100305.04;;;15.49;88.25
42451;BME280;28080;51.138;17.170;2022-07-06T03:53:08;100300.64;;;15.34;89.00
42451;BME280;28080;51.138;17.170;2022-07-06T03:58:33;100331.57;;;15.22;90.85
42451;BME280;28080;51.138;17.170;2022-07-06T04:03:58;100346.28;;;15.01;92.32
42451;BME280;28080;51.138;17.170;2022-07-06T04:09:22;100340.56;;;14.91;93.02
42451;BME280;28080;51.138;17.170;2022-07-06T04:14:47;100343.86;;;14.87;92.62
42451;BME280;28080;51.138;17.170;2022-07-06T04:20:12;100347.15;;;14.86;92.61
42451;BME280;28080;51.138;17.170;2022-07-06T04:25:36;100358.41;;;14.86;92.45
42451;BME280;28080;51.138;17.170;2022-07-06T04:31:01;100364.75;;;14.88;92.03
42451;BME280;28080;51.138;17.170;2022-07-06T04:36:26;100377.42;;;14.90;92.00
42451;BME280;28080;51.138;17.170;2022-07-06T04:41:50;100382.36;;;14.90;93.53
42451;BME280;28080;51.138;17.170;2022-07-06T04:47:15;100389.61;;;14.76;95.73
42451;BME280;28080;51.138;17.170;2022-07-06T04:52:39;100409.60;;;14.61;97.58
42451;BME280;28080;51.138;17.170;2022-07-06T04:58:04;100412.59;;;14.49;98.80
42451;BME280;28080;51.138;17.170;2022-07-06T05:03:29;100418.61;;;14.42;99.56
42451;BME280;28080;51.138;17.170;2022-07-06T05:08:54;100425.41;;;14.37;99.72
42451;BME280;28080;51.138;17.170;2022-07-06T05:14:19;100431.19;;;14.35;100.00
42451;BME280;28080;51.138;17.170;2022-07-06T05:19:43;100435.16;;;14.34;100.00
42451;BME280;28080;51.138;17.170;2022-07-06T05:25:09;100436.33;;;14.33;100.00
42451;BME280;28080;51.138;17.170;2022-07-06T05:30:33;100434.21;;;14.33;100.00
42451;BME280;28080;51.138;17.170;2022-07-06T05:35:58;100430.42;;;14.32;100.00
42451;BME280;28080;51.138;17.170;2022-07-06T05:41:22;100423.57;;;14.32;100.00
42451;BME280;28080;51.138;17.170;2022-07-06T05:46:47;100416.49;;;14.37;100.00
42451;BME280;28080;51.138;17.170;2022-07-06T05:52:05;100412.85;;;14.41;99.94
42451;BME280;28080;51.138;17.170;2022-07-06T05:57:28;100415.65;;;14.50;99.21
42451;BME280;28080;51.138;17.170;2022-07-06T06:02:53;100405.02;;;14.61;99.09
42451;BME280;28080;51.138;17.170;2022-07-06T06:08:18;100390.15;;;14.69;99.12
42451;BME280;28080;51.138;17.170;2022-07-06T06:13:43;100386.98;;;14.78;98.43
42451;BME280;28080;51.138;17.170;2022-07-06T06:19:07;100384.96;;;14.86;98.68
42451;BME280;28080;51.138;17.170;2022-07-06T06:29:57;100385.14;;;14.95;98.53
42451;BME280;28080;51.138;17.170;2022-07-06T06:35:21;100391.90;;;14.98;98.93
42451;BME280;28080;51.138;17.170;2022-07-06T06:40:46;100433.02;;;15.07;99.60
42451;BME280;28080;51.138;17.170;2022-07-06T06:51:45;100450.70;;;15.12;100.00
42451;BME280;28080;51.138;17.170;2022-07-06T06:57:09;100456.88;;;15.15;100.00
42451;BME280;28080;51.138;17.170;2022-07-06T07:02:34;100457.50;;;15.16;100.00
42451;BME280;28080;51.138;17.170;2022-07-06T07:07:59;100454.02;;;15.20;100.00
42451;BME280;28080;51.138;17.170;2022-07-06T07:18:47;100452.91;;;15.38;100.00
42451;BME280;28080;51.138;17.170;2022-07-06T07:24:12;100450.82;;;15.62;100.00
42451;BME280;28080;51.138;17.170;2022-07-06T07:29:38;100453.29;;;15.93;100.00
42451;BME280;28080;51.138;17.170;2022-07-06T07:35:12;100460.04;;;16.21;100.00
42451;BME280;28080;51.138;17.170;2022-07-06T07:40:38;100454.81;;;16.50;100.00
42451;BME280;28080;51.138;17.170;2022-07-06T07:46:36;100451.97;;;16.73;96.90
42451;BME280;28080;51.138;17.170;2022-07-06T07:52:10;100444.42;;;17.00;94.99
42451;BME280;28080;51.138;17.170;2022-07-06T08:02:39;100443.84;;;17.53;89.96
42451;BME280;28080;51.138;17.170;2022-07-06T08:07:54;100447.23;;;17.77;89.23
42451;BME280;28080;51.138;17.170;2022-07-06T08:13:19;100450.38;;;18.03;89.04
42451;BME280;28080;51.138;17.170;2022-07-06T08:18:46;100453.02;;;18.27;86.17
42451;BME280;28080;51.138;17.170;2022-07-06T08:24:12;100455.81;;;18.50;83.69
42451;BME280;28080;51.138;17.170;2022-07-06T08:29:37;100456.32;;;18.77;82.35
42451;BME280;28080;51.138;17.170;2022-07-06T08:35:02;100461.48;;;18.94;77.64
42451;BME280;28080;51.138;17.170;2022-07-06T08:40:31;100451.89;;;19.15;76.08
42451;BME280;28080;51.138;17.170;2022-07-06T08:45:56;100455.40;;;19.38;75.96
42451;BME280;28080;51.138;17.170;2022-07-06T08:51:16;100450.48;;;19.63;73.39
42451;BME280;28080;51.138;17.170;2022-07-06T08:56:43;100450.83;;;19.89;71.40
42451;BME280;28080;51.138;17.170;2022-07-06T09:07:56;100442.54;;;20.19;67.48
42451;BME280;28080;51.138;17.170;2022-07-06T09:13:21;100443.29;;;20.35;67.39
42451;BME280;28080;51.138;17.170;2022-07-06T09:29:39;100439.73;;;20.79;65.63
42451;BME280;28080;51.138;17.170;2022-07-06T09:41:33;100428.66;;;21.12;64.20
42451;BME280;28080;51.138;17.170;2022-07-06T09:59:07;100421.27;;;21.56;61.48
42451;BME280;28080;51.138;17.170;2022-07-06T10:05:04;100420.11;;;21.73;62.16
42451;BME280;28080;51.138;17.170;2022-07-06T10:16:03;100415.98;;;22.05;58.83
42451;BME280;28080;51.138;17.170;2022-07-06T10:26:29;100414.41;;;22.22;55.57
42451;BME280;28080;51.138;17.170;2022-07-06T10:31:54;100410.70;;;22.30;52.07
42451;BME280;28080;51.138;17.170;2022-07-06T10:43:21;100399.39;;;22.52;50.79
42451;BME280;28080;51.138;17.170;2022-07-06T10:48:47;100405.20;;;22.50;48.97
42451;BME280;28080;51.138;17.170;2022-07-06T11:00:48;100407.15;;;22.46;44.29
42451;BME280;28080;51.138;17.170;2022-07-06T11:06:17;100402.55;;;22.26;46.32
42451;BME280;28080;51.138;17.170;2022-07-06T11:46:54;100433.02;;;21.51;50.50
42451;BME280;28080;51.138;17.170;2022-07-06T11:52:44;100437.42;;;21.60;52.00
42451;BME280;28080;51.138;17.170;2022-07-06T12:17:48;100424.00;;;22.25;49.87
42451;BME280;28080;51.138;17.170;2022-07-06T12:57:03;100399.70;;;22.41;42.45
42451;BME280;28080;51.138;17.170;2022-07-06T13:02:32;100404.05;;;22.67;43.28
42451;BME280;28080;51.138;17.170;2022-07-06T13:23:29;100414.52;;;22.65;46.67
42451;BME280;28080;51.138;17.170;2022-07-06T13:45:03;100425.00;;;22.29;51.98
42451;BME280;28080;51.138;17.170;2022-07-06T13:56:34;100418.52;;;22.31;52.82
42451;BME280;28080;51.138;17.170;2022-07-06T14:02:06;100412.67;;;22.41;43.87
42451;BME280;28080;51.138;17.170;2022-07-06T14:17:55;100398.46;;;23.06;39.60
42451;BME280;28080;51.138;17.170;2022-07-06T14:23:22;100403.04;;;23.12;40.26
42451;BME280;28080;51.138;17.170;2022-07-06T14:34:17;100408.45;;;23.00;39.15
42451;BME280;28080;51.138;17.170;2022-07-06T14:44:43;100395.41;;;22.81;39.45
42451;BME280;28080;51.138;17.170;2022-07-06T14:50:01;100395.25;;;22.79;39.51
42451;BME280;28080;51.138;17.170;2022-07-06T14:55:17;100393.20;;;22.74;38.30
42451;BME280;28080;51.138;17.170;2022-07-06T15:00:41;100392.34;;;22.78;37.55
42451;BME280;28080;51.138;17.170;2022-07-06T15:06:07;100395.01;;;22.80;37.13
42451;BME280;28080;51.138;17.170;2022-07-06T15:11:32;100394.05;;;22.95;38.03
42451;BME280;28080;51.138;17.170;2022-07-06T15:16:57;100394.36;;;23.11;36.81
42451;BME280;28080;51.138;17.170;2022-07-06T15:22:22;100382.48;;;23.22;37.23
42451;BME280;28080;51.138;17.170;2022-07-06T15:27:47;100383.13;;;23.33;36.57
42451;BME280;28080;51.138;17.170;2022-07-06T15:33:12;100386.58;;;23.28;36.28
42451;BME280;28080;51.138;17.170;2022-07-06T15:38:26;100388.69;;;23.22;36.11
42451;BME280;28080;51.138;17.170;2022-07-06T15:43:51;100381.74;;;22.98;35.72
42451;BME280;28080;51.138;17.170;2022-07-06T15:49:16;100377.33;;;22.81;36.35
42451;BME280;28080;51.138;17.170;2022-07-06T15:54:41;100378.83;;;22.75;36.23
42451;BME280;28080;51.138;17.170;2022-07-06T16:00:08;100377.41;;;22.66;36.20
42451;BME280;28080;51.138;17.170;2022-07-06T16:05:35;100375.30;;;22.64;36.45
42451;BME280;28080;51.138;17.170;2022-07-06T16:11:02;100376.44;;;22.66;37.37
42451;BME280;28080;51.138;17.170;2022-07-06T16:16:27;100379.02;;;22.71;37.53
42451;BME280;28080;51.138;17.170;2022-07-06T16:21:52;100375.58;;;22.72;37.44
42451;BME280;28080;51.138;17.170;2022-07-06T16:27:16;100375.00;;;22.64;35.78
42451;BME280;28080;51.138;17.170;2022-07-06T16:32:42;100372.02;;;22.57;36.39
42451;BME280;28080;51.138;17.170;2022-07-06T16:38:06;100375.35;;;22.54;35.67
42451;BME280;28080;51.138;17.170;2022-07-06T16:43:31;100377.02;;;22.43;35.44
42451;BME280;28080;51.138;17.170;2022-07-06T16:48:56;100370.17;;;22.27;35.25
42451;BME280;28080;51.138;17.170;2022-07-06T16:54:20;100372.56;;;22.21;36.41
42451;BME280;28080;51.138;17.170;2022-07-06T16:59:45;100371.38;;;22.19;36.89
42451;BME280;28080;51.138;17.170;2022-07-06T17:05:11;100371.89;;;22.20;37.39
42451;BME280;28080;51.138;17.170;2022-07-06T17:10:35;100376.01;;;22.16;35.66
42451;BME280;28080;51.138;17.170;2022-07-06T17:16:00;100376.95;;;22.04;36.32
42451;BME280;28080;51.138;17.170;2022-07-06T17:21:25;100373.80;;;21.93;36.91
42451;BME280;28080;51.138;17.170;2022-07-06T17:26:40;100378.40;;;21.87;37.46
42451;BME280;28080;51.138;17.170;2022-07-06T17:32:06;100382.73;;;21.80;37.93
42451;BME280;28080;51.138;17.170;2022-07-06T17:37:31;100384.25;;;21.69;36.99
42451;BME280;28080;51.138;17.170;2022-07-06T17:42:56;100386.71;;;21.57;37.60
42451;BME280;28080;51.138;17.170;2022-07-06T17:48:20;100384.71;;;21.50;38.36
42451;BME280;28080;51.138;17.170;2022-07-06T17:53:42;100392.16;;;21.40;38.40
42451;BME280;28080;51.138;17.170;2022-07-06T17:59:07;100390.46;;;21.29;37.39
42451;BME280;28080;51.138;17.170;2022-07-06T18:04:14;100399.20;;;21.17;38.51
42451;BME280;28080;51.138;17.170;2022-07-06T18:09:24;100399.48;;;21.02;37.73
42451;BME280;28080;51.138;17.170;2022-07-06T18:14:32;100407.13;;;20.92;38.48
42451;BME280;28080;51.138;17.170;2022-07-06T18:19:56;100411.10;;;20.81;39.21
42451;BME280;28080;51.138;17.170;2022-07-06T18:25:21;100417.50;;;20.70;39.38
42451;BME280;28080;51.138;17.170;2022-07-06T18:30:36;100419.06;;;20.59;39.74
42451;BME280;28080;51.138;17.170;2022-07-06T18:36:02;100421.29;;;20.45;40.01
42451;BME280;28080;51.138;17.170;2022-07-06T18:41:19;100421.38;;;20.34;41.33
42451;BME280;28080;51.138;17.170;2022-07-06T18:46:27;100426.05;;;20.22;41.81
42451;BME280;28080;51.138;17.170;2022-07-06T18:51:52;100423.88;;;20.10;42.86
42451;BME280;28080;51.138;17.170;2022-07-06T18:57:17;100426.23;;;19.99;43.94
42451;BME280;28080;51.138;17.170;2022-07-06T19:02:42;100436.55;;;19.92;45.28
42451;BME280;28080;51.138;17.170;2022-07-06T19:08:05;100441.39;;;19.84;46.16
42451;BME280;28080;51.138;17.170;2022-07-06T19:13:30;100441.46;;;19.74;46.56
42451;BME280;28080;51.138;17.170;2022-07-06T19:18:50;100442.86;;;19.69;47.67
42451;BME280;28080;51.138;17.170;2022-07-06T19:24:13;100447.52;;;19.63;47.73
42451;BME280;28080;51.138;17.170;2022-07-06T19:29:37;100451.20;;;19.54;47.72
42451;BME280;28080;51.138;17.170;2022-07-06T19:35:01;100459.95;;;19.40;48.91
42451;BME280;28080;51.138;17.170;2022-07-06T19:40:25;100465.58;;;19.19;50.29
42451;BME280;28080;51.138;17.170;2022-07-06T19:45:48;100468.70;;;19.08;50.42
42451;BME280;28080;51.138;17.170;2022-07-06T19:51:13;100478.79;;;18.99;50.66
42451;BME280;28080;51.138;17.170;2022-07-06T19:56:40;100474.54;;;18.89;50.89
42451;BME280;28080;51.138;17.170;2022-07-06T20:02:05;100476.83;;;18.78;50.52
42451;BME280;28080;51.138;17.170;2022-07-06T20:07:29;100476.89;;;18.67;51.35
42451;BME280;28080;51.138;17.170;2022-07-06T20:12:54;100471.52;;;18.57;51.76
42451;BME280;28080;51.138;17.170;2022-07-06T20:18:17;100474.66;;;18.42;52.46
42451;BME280;28080;51.138;17.170;2022-07-06T20:23:42;100477.98;;;18.24;53.45
42451;BME280;28080;51.138;17.170;2022-07-06T20:29:06;100479.15;;;18.10;53.64
42451;BME280;28080;51.138;17.170;2022-07-06T20:34:31;100481.84;;;17.98;53.81
42451;BME280;28080;51.138;17.170;2022-07-06T20:39:59;100479.91;;;17.90;53.94
42451;BME280;28080;51.138;17.170;2022-07-06T20:45:24;100483.27;;;17.81;54.03
42451;BME280;28080;51.138;17.170;2022-07-06T20:50:48;100482.42;;;17.71;54.54
42451;BME280;28080;51.138;17.170;2022-07-06T20:56:13;100485.02;;;17.59;54.75
42451;BME280;28080;51.138;17.170;2022-07-06T21:01:38;100483.55;;;17.50;55.09
42451;BME280;28080;51.138;17.170;2022-07-06T21:07:03;100479.14;;;17.40;55.41
42451;BME280;28080;51.138;17.170;2022-07-06T21:12:27;100477.17;;;17.30;56.07
42451;BME280;28080;51.138;17.170;2022-07-06T21:17:44;100483.91;;;17.19;56.48
42451;BME280;28080;51.138;17.170;2022-07-06T21:23:10;100488.45;;;17.10;56.66
42451;BME280;28080;51.138;17.170;2022-07-06T21:28:35;100487.40;;;17.01;57.39
42451;BME280;28080;51.138;17.170;2022-07-06T21:34:00;100486.63;;;16.84;57.71
42451;BME280;28080;51.138;17.170;2022-07-06T21:39:25;100480.08;;;16.65;58.56
42451;BME280;28080;51.138;17.170;2022-07-06T21:44:33;100482.44;;;16.62;58.55
42451;BME280;28080;51.138;17.170;2022-07-06T21:50:00;100482.07;;;16.55;58.44
42451;BME280;28080;51.138;17.170;2022-07-06T21:55:25;100485.96;;;16.47;58.53
42451;BME280;28080;51.138;17.170;2022-07-06T22:00:49;100481.89;;;16.38;58.66
42451;BME280;28080;51.138;17.170;2022-07-06T22:06:14;100478.65;;;16.30;58.83
42451;BME280;28080;51.138;17.170;2022-07-06T22:11:40;100481.50;;;16.22;58.78
42451;BME280;28080;51.138;17.170;2022-07-06T22:17:05;100480.48;;;16.10;58.88
42451;BME280;28080;51.138;17.170;2022-07-06T22:22:30;100477.95;;;15.98;59.34
42451;BME280;28080;51.138;17.170;2022-07-06T22:27:54;100477.59;;;15.87;59.79
42451;BME280;28080;51.138;17.170;2022-07-06T22:33:19;100470.10;;;15.73;60.07
42451;BME280;28080;51.138;17.170;2022-07-06T22:38:28;100462.71;;;15.61;60.23
42451;BME280;28080;51.138;17.170;2022-07-06T22:43:53;100457.52;;;15.49;60.52
42451;BME280;28080;51.138;17.170;2022-07-06T22:49:17;100453.81;;;15.44;60.49
42451;BME280;28080;51.138;17.170;2022-07-06T22:54:24;100454.20;;;15.40;60.11
42451;BME280;28080;51.138;17.170;2022-07-06T22:59:40;100452.13;;;15.33;60.54
42451;BME280;28080;51.138;17.170;2022-07-06T23:05:06;100448.52;;;15.24;60.85
42451;BME280;28080;51.138;17.170;2022-07-06T23:10:24;100458.28;;;15.10;61.76
42451;BME280;28080;51.138;17.170;2022-07-06T23:15:41;100459.75;;;15.10;61.72
42451;BME280;28080;51.138;17.170;2022-07-06T23:20:54;100463.29;;;15.02;62.93
42451;BME280;28080;51.138;17.170;2022-07-06T23:26:18;100459.44;;;14.86;63.36
42451;BME280;28080;51.138;17.170;2022-07-06T23:31:43;100454.34;;;14.79;63.49
42451;BME280;28080;51.138;17.170;2022-07-06T23:37:08;100462.48;;;14.76;63.70
42451;BME280;28080;51.138;17.170;2022-07-06T23:42:23;100459.73;;;14.73;63.57
42451;BME280;28080;51.138;17.170;2022-07-06T23:47:48;100459.54;;;14.69;63.54
42451;BME280;28080;51.138;17.170;2022-07-06T23:53:12;100454.52;;;14.63;63.77
42451;BME280;28080;51.138;17.170;2022-07-06T23:58:37;100448.69;;;14.59;64.26
